• Join FlightAware (Why Join?)
  • Login
  • US Flag 
03:16PM EDT


 

Airport Tracker/Info


-or-


 

Live Flight TrackerFlight Track Log ✈ KAP5 ✈ 30-Jun-2013 ✈ KBOS - KMVY

Flight Track Log - Related Links

Times and Time Zones

All times are in EDT time to prevent confusion due to time zone crossing. See the KAP5 flight status page for this flight to view local times or setup timezone preferences in your user account.

Time Position Orientation Groundspeed Altitude Reporting Facility
EDT Latitude Longitude Course Direction KTS MPH feet Rate Location/Type
05:01PM 42.3667 -71.0167 194° South 104 120 700  Level KA90
05:03PM 42.3167 -71.0333 194° South 138 159 2,300 900 Climbing KA90
05:04PM 42.2833 -71.0167 160° South 145 167 3,000 360 Climbing KA90
05:05PM 42.2333 -71.0000 166° South 172 198 3,000 900 Level KA90
05:06PM 42.2000 -70.9833 160° South 119 137 4,900 900 Climbing KA90
05:07PM 42.1500 -70.9667 166° South 159 183 5,000  Climbing KA90
05:08PM 42.1000 -70.9500 166° South 163 188 5,000  Level KA90
05:10PM 42.0734 -70.9263 147° Southeast  Level FlightAware Approximate
05:17PM 41.9357 -70.8167 180° South  Level FlightAware Approximate
05:18PM 41.9134 -70.8152 161° South  Level FlightAware Approximate
05:19PM 41.8921 -70.8055 161° South  Level FlightAware Approximate
05:20PM 41.8708 -70.7958 161° South  Level FlightAware Approximate
05:21PM 41.8495 -70.7861 161° South  Level FlightAware Approximate
05:22PM 41.8282 -70.7764 161° South  Level FlightAware Approximate
05:23PM 41.8069 -70.7667 161° South  Level FlightAware Approximate
05:24PM 41.7856 -70.7570 161° South  Level FlightAware Approximate
05:25PM 41.7643 -70.7474 161° South  Level FlightAware Approximate
05:26PM 41.7430 -70.7377 161° South  Level FlightAware Approximate
05:27PM 41.7215 -70.7289 164° South  Level FlightAware Approximate
05:28PM 41.6998 -70.7207 164° South  Level FlightAware Approximate
05:29PM 41.6782 -70.7126 164° South  Level FlightAware Approximate
05:30PM 41.6565 -70.7045 164° South  Level FlightAware Approximate
05:31PM 41.6348 -70.6964 164° South  Level FlightAware Approximate
05:32PM 41.6132 -70.6883 164° South  Level FlightAware Approximate
05:33PM 41.5915 -70.6802 164° South  Level FlightAware Approximate
05:34PM 41.5699 -70.6720 164° South  Level FlightAware Approximate
05:35PM 41.5482 -70.6639 164° South  Level FlightAware Approximate